Shibin el-Kom, Egypt
Current Conditions -  °F | °C
As of 7:00 PM on Saturday 20 Dec 2014 (Local Time) from HECA Reporting Station
Broken Clouds Broken Clouds  
Wind Chill: 64°   Ceiling: 2500
Heat Index: 64°   Visibility: 6mi
Dew Point: 52°   Wind: 6mph
Humidity: 64%   Direction: 330°NNW
Pressure: 30.15"   Gusts: NA
Location:  30.59°N, 30.9°E
Report Text: HECA 201700Z 33005KT 9999 BKN025 18/11 Q1021 NOSIG
Loading
Personal Weather Stations






























Interactive Weather Map New forecast layout! Learn more

10-Day Weather Forecast

Advertisements
Track Severe Weather on mobile